createdAt,value
2024-05-09T00:03:06.995Z,7.8
2024-05-09T00:07:49.089Z,7.2
2024-05-09T00:12:31.387Z,5.9
2024-05-09T00:17:13.755Z,7.9
2024-05-09T00:21:56.040Z,7.4
2024-05-09T00:26:38.292Z,8.7
2024-05-09T00:31:19.502Z,9.39
2024-05-09T00:36:01.799Z,9.5
2024-05-09T00:40:44.151Z,7.9
2024-05-09T00:45:26.419Z,9.5
2024-05-09T00:50:08.621Z,7.9
2024-05-09T00:54:50.926Z,6.9
2024-05-09T00:59:33.220Z,6.8
2024-05-09T01:04:14.545Z,7.1
2024-05-09T01:08:56.871Z,7.2
2024-05-09T01:13:39.062Z,14.1
2024-05-09T01:18:20.343Z,9.1
2024-05-09T01:27:44.946Z,9.3
2024-05-09T01:32:27.271Z,7.7
2024-05-09T01:37:09.450Z,7.9
2024-05-09T01:41:51.754Z,8.7
2024-05-09T01:46:34.096Z,7.8
2024-05-09T01:51:16.362Z,12.6
2024-05-09T01:55:58.668Z,11
2024-05-09T02:00:40.867Z,8.2
2024-05-09T02:05:23.187Z,12.6
2024-05-09T02:10:05.478Z,10.3
2024-05-09T02:14:47.784Z,9.7
2024-05-09T02:19:28.979Z,13
2024-05-09T02:24:11.293Z,10.3
2024-05-09T02:28:53.960Z,13.3
2024-05-09T02:33:35.893Z,10.8
2024-05-09T02:38:18.201Z,11.2
2024-05-09T02:43:00.415Z,11.6
2024-05-09T02:47:42.712Z,9.39
2024-05-09T02:52:25.010Z,13.6
2024-05-09T02:57:07.310Z,10.6
2024-05-09T03:06:31.815Z,10.5
2024-05-09T03:11:14.133Z,10.1
2024-05-09T03:15:56.430Z,10.5
2024-05-09T03:20:38.640Z,10.2
2024-05-09T03:25:19.941Z,14.1
2024-05-09T03:30:02.242Z,10.9
2024-05-09T03:34:44.593Z,12.3
2024-05-09T03:39:26.845Z,10
2024-05-09T03:48:51.351Z,11.3
2024-05-09T03:53:33.683Z,17.7
2024-05-09T03:58:16.001Z,14.4
2024-05-09T04:02:58.259Z,15
2024-05-09T04:07:40.466Z,22.2
2024-05-09T04:12:22.781Z,14.2
2024-05-09T04:17:05.064Z,16.6
2024-05-09T04:21:47.381Z,13.7
2024-05-09T04:26:28.681Z,12.8
2024-05-09T04:40:35.500Z,13.2
2024-05-09T04:45:16.812Z,13.1
2024-05-09T04:49:58.092Z,14.3
2024-05-09T04:54:40.398Z,14.6
2024-05-09T04:59:22.664Z,14.7
2024-05-09T05:04:04.907Z,14.9
2024-05-09T05:08:47.206Z,13.9
2024-05-09T05:13:28.671Z,14.7
2024-05-09T05:22:53.947Z,12.1
2024-05-09T05:27:35.319Z,14.9
2024-05-09T05:32:17.623Z,14.6
2024-05-09T05:36:59.945Z,11.4
2024-05-09T05:41:42.311Z,10.1
2024-05-09T05:46:24.499Z,14.2
2024-05-09T05:51:06.740Z,10.3
2024-05-09T05:55:49.047Z,8.7
2024-05-09T06:00:31.364Z,8.7
2024-05-09T06:09:55.968Z,7.7
2024-05-09T06:14:37.163Z,6.4
2024-05-09T06:24:00.766Z,4.1
2024-05-09T06:28:43.140Z,5.6
2024-05-09T06:33:25.480Z,3.3
2024-05-09T06:38:07.604Z,5
2024-05-09T06:42:49.883Z,3.4
2024-05-09T06:47:32.206Z,3.6
2024-05-09T07:01:39.003Z,3.2
2024-05-09T07:06:21.436Z,6.2
2024-05-09T07:11:03.816Z,3
2024-05-09T07:15:45.908Z,2.6
2024-05-09T07:20:28.143Z,3.3
2024-05-09T07:25:10.421Z,1.4
2024-05-09T07:29:52.750Z,3.2
2024-05-09T07:34:33.926Z,2.09
2024-05-09T07:39:16.267Z,3.4
2024-05-09T07:43:58.665Z,5
2024-05-09T07:48:40.831Z,2.6
2024-05-09T07:53:23.075Z,3.1
2024-05-09T07:58:05.350Z,2.4
2024-05-09T08:02:47.655Z,1.7
2024-05-09T08:07:29.959Z,1.4
2024-05-09T08:12:12.163Z,2.4
2024-05-09T08:16:54.471Z,1.3
2024-05-09T08:26:19.067Z,3.6
2024-05-09T08:31:01.744Z,1.4
2024-05-09T08:35:42.574Z,2.3
2024-05-09T08:40:23.997Z,1.4
2024-05-09T08:45:06.300Z,1.6
2024-05-09T08:49:48.620Z,3.1
2024-05-09T08:54:30.792Z,4.19
2024-05-09T08:59:13.005Z,2.09
2024-05-09T09:03:54.367Z,2.4
2024-05-09T09:08:36.613Z,1.3
2024-05-09T09:18:01.221Z,4.8
2024-05-09T09:22:43.432Z,2.09
2024-05-09T09:27:25.769Z,1.7
2024-05-09T09:32:08.040Z,1.7
2024-05-09T09:41:32.536Z,3.2
2024-05-09T09:46:14.834Z,7.1
2024-05-09T09:50:57.200Z,2
2024-05-09T09:55:38.467Z,1
2024-05-09T10:00:20.767Z,0.7
2024-05-09T10:09:44.261Z,6.8
2024-05-09T10:23:51.770Z,1.4
2024-05-09T10:28:33.414Z,1.6
2024-05-09T10:33:15.677Z,2.6
2024-05-09T10:37:58.009Z,2
2024-05-09T10:42:40.368Z,2.2
2024-05-09T10:47:22.499Z,1.1
2024-05-09T10:52:04.867Z,3
2024-05-09T10:56:47.104Z,2.09
2024-05-09T11:01:29.411Z,5.4
2024-05-09T11:06:11.789Z,1.8
2024-05-09T11:10:53.994Z,1.5
2024-05-09T11:15:36.217Z,1.2
2024-05-09T11:20:17.515Z,2.8
2024-05-09T11:24:59.829Z,2.5
2024-05-09T11:29:42.044Z,1.1
2024-05-09T11:34:24.487Z,1.5
2024-05-09T11:39:06.650Z,1.3
2024-05-09T11:43:48.934Z,0.9
2024-05-09T11:48:31.135Z,1.7
2024-05-09T11:53:13.498Z,1.1
2024-05-09T12:02:38.065Z,1.5
2024-05-09T12:07:20.261Z,1.6
2024-05-09T12:12:02.563Z,2
2024-05-09T12:16:43.892Z,1.2
2024-05-09T12:26:08.555Z,2.5
2024-05-09T12:30:50.776Z,1.7
2024-05-09T12:35:32.122Z,1
2024-05-09T12:40:14.291Z,1.3
2024-05-09T12:44:56.599Z,0.6
2024-05-09T12:49:38.956Z,0.5
2024-05-09T12:54:21.211Z,1.1
2024-05-09T12:59:04.221Z,1
2024-05-09T13:03:45.895Z,1.2
2024-05-09T13:17:52.612Z,0.7
2024-05-09T13:22:34.906Z,1.8
2024-05-09T13:27:17.211Z,0.7
2024-05-09T13:31:59.437Z,0.7
2024-05-09T13:36:41.720Z,0.6
2024-05-09T13:41:24.047Z,0.5
2024-05-09T13:46:05.339Z,0.7
2024-05-09T13:50:46.657Z,0.6
2024-05-09T14:00:11.135Z,2
2024-05-09T14:04:53.447Z,1.1
2024-05-09T14:09:35.739Z,0.9
2024-05-09T14:14:18.191Z,0.5
2024-05-09T14:23:42.557Z,0.7
2024-05-09T14:28:24.960Z,1.1
2024-05-09T14:33:07.229Z,2.2
2024-05-09T14:37:49.473Z,0.7
2024-05-09T14:42:31.668Z,3.4
2024-05-09T14:47:15.182Z,1
2024-05-09T14:51:56.288Z,0.7
2024-05-09T14:56:37.592Z,0.8
2024-05-09T15:01:19.904Z,1.4
2024-05-09T15:06:02.128Z,1.3
2024-05-09T15:10:44.408Z,1.3
2024-05-09T15:20:09.013Z,1.3
2024-05-09T15:24:51.216Z,1.1
2024-05-09T15:29:33.515Z,1.9
2024-05-09T15:34:15.871Z,3.8
2024-05-09T15:38:58.160Z,3.2
2024-05-09T15:43:40.344Z,1.7
2024-05-09T15:48:22.637Z,1.3
2024-05-09T15:53:04.940Z,1.5
2024-05-09T15:57:47.246Z,0.9
2024-05-09T16:02:29.456Z,1.6
2024-05-09T16:07:11.748Z,0.8
2024-05-09T16:11:53.068Z,4.5
2024-05-09T16:21:17.727Z,0.7
2024-05-09T16:26:00.042Z,0.5
2024-05-09T16:30:41.301Z,1.3
2024-05-09T16:35:23.509Z,1.7
2024-05-09T16:40:05.786Z,1
2024-05-09T16:44:48.095Z,0.7
2024-05-09T16:49:30.293Z,1.7
2024-05-09T16:54:12.607Z,1.9
2024-05-09T16:58:54.906Z,0.8
2024-05-09T17:08:19.414Z,2
2024-05-09T17:13:01.732Z,1.2
2024-05-09T17:17:43.019Z,0.7
2024-05-09T17:22:25.321Z,0.8
2024-05-09T17:27:07.674Z,0.6
2024-05-09T17:31:48.972Z,2.09
2024-05-09T17:36:31.238Z,1
2024-05-09T17:41:13.506Z,2.09
2024-05-09T17:45:55.868Z,1.8
2024-05-09T17:50:38.052Z,2.3
2024-05-09T17:55:20.290Z,1
2024-05-09T18:00:02.557Z,5.9
2024-05-09T18:04:43.931Z,4.19
2024-05-09T18:09:26.256Z,3.9
2024-05-09T18:14:08.505Z,1.7
2024-05-09T18:18:50.780Z,2.4
2024-05-09T18:23:33.042Z,1.3
2024-05-09T18:28:14.342Z,2.3
2024-05-09T18:32:56.585Z,3.6
2024-05-09T18:37:38.891Z,2.4
2024-05-09T18:42:21.097Z,2.2
2024-05-09T18:47:03.405Z,2.5
2024-05-09T18:51:44.708Z,6.3
2024-05-09T18:56:26.059Z,2.2
2024-05-09T19:01:08.309Z,2.2
2024-05-09T19:05:50.726Z,2.4
2024-05-09T19:10:32.807Z,2.6
2024-05-09T19:15:15.102Z,3.9
2024-05-09T19:19:57.415Z,2.5
2024-05-09T19:29:21.926Z,3.4
2024-05-09T19:34:04.221Z,3.8
2024-05-09T19:38:46.526Z,3.3
2024-05-09T19:43:28.982Z,4.19
2024-05-09T19:48:11.095Z,8.5
2024-05-09T19:52:53.342Z,3.1
2024-05-09T19:57:35.658Z,5
2024-05-09T20:02:17.955Z,5.4
2024-05-09T20:06:59.242Z,2.4
2024-05-09T20:16:23.814Z,3
2024-05-09T20:21:05.063Z,2.5
2024-05-09T20:25:46.448Z,2.6
2024-05-09T20:30:28.671Z,4.1
2024-05-09T20:35:10.971Z,3
2024-05-09T20:39:53.179Z,4.8
2024-05-09T20:44:35.492Z,4.1
2024-05-09T20:49:17.777Z,6.8
2024-05-09T20:54:00.086Z,6.9
2024-05-09T20:58:42.384Z,4.19
2024-05-09T21:03:23.689Z,2.5
2024-05-09T21:08:06.190Z,7.6
2024-05-09T21:12:47.376Z,2.9
2024-05-09T21:17:29.678Z,2.4
2024-05-09T21:22:11.802Z,2.8
2024-05-09T21:26:54.343Z,4.3
2024-05-09T21:31:36.301Z,3.5
2024-05-09T21:36:18.847Z,4.4
2024-05-09T21:41:00.008Z,7.6
2024-05-09T21:45:42.219Z,4
2024-05-09T21:50:24.557Z,5.4
2024-05-09T21:55:06.734Z,4.19
2024-05-09T21:59:49.185Z,2.09
2024-05-09T22:04:31.352Z,6
2024-05-09T22:09:13.764Z,3.6
2024-05-09T22:13:55.838Z,4.5
2024-05-09T22:18:38.251Z,3
2024-05-09T22:23:20.442Z,3.5
2024-05-09T22:28:02.827Z,5.4
2024-05-09T22:37:27.505Z,7.6
2024-05-09T22:42:08.593Z,4.3
2024-05-09T22:46:51.382Z,3.9
2024-05-09T22:51:33.165Z,4
2024-05-09T22:56:15.591Z,5.2
2024-05-09T23:00:57.676Z,3.5
2024-05-09T23:05:39.983Z,5
2024-05-09T23:10:22.272Z,7.2
2024-05-09T23:15:04.843Z,4.6
2024-05-09T23:24:29.095Z,4.5
2024-05-09T23:29:11.387Z,7.3
2024-05-09T23:33:53.868Z,4.8
2024-05-09T23:38:35.932Z,4.9
2024-05-09T23:43:17.270Z,6.3
2024-05-09T23:47:59.678Z,11.2
2024-05-09T23:52:41.797Z,6.1
2024-05-09T23:57:24.100Z,7.7
